Latest Weather Observations for Moruya Airport

IDN60901

Issued at 12:01 pm EST Tuesday 28 June 2016 (issued every 10 minutes, with the page automatically refreshed every 10 minutes)

About weather observations | Map of Canberra area stations | Latest observations for Canberra area | Other Formats
Station Details ID: 069148 Name: MORUYA AIRPORT AWS Lat: -35.90 Lon: 150.14 Height: 4.0 m
Data from the previous 72 hours. | See also: Recent months at Moruya Airport
Date/Time
EST
Temp
°C
App
Temp
°C
Dew
Point
°C
Rel
Hum
%
Delta-T
°C
Wind Press
QNH
hPa
Press
MSL
hPa
Rain since
9am
mm
Dir  Spd
km/h
Gust
km/h
Spd
kts
Gust
kts
28/12:00pm 15.5 11.6 1.3 38 6.2 WSW 11 19 6 10 1023.1 1023.1 0.0
28/11:30am 14.6 10.3 1.2 40 5.8 WSW 13 17 7 9 1023.4 1023.4 0.0
28/11:00am 14.2 10.6 3.1 47 4.9 W 11 15 6 8 1023.7 1023.7 0.0
28/10:30am 12.9 9.4 3.3 52 4.3 W 11 17 6 9 1023.8 1023.8 0.0
28/10:00am 11.5 7.6 3.5 58 3.5 W 13 19 7 10 1023.8 1023.8 0.0
28/09:30am 9.8 5.9 3.3 64 2.8 W 13 19 7 10 1023.7 1023.7 0.0
28/09:00am 7.8 4.3 3.5 74 1.8 WSW 11 15 6 8 1023.4 1023.4 0.0
28/08:30am 6.1 3.7 5.2 94 0.4 W 7 11 4 6 1023.0 1023.0 0.0
28/08:00am 3.9 1.1 3.3 96 0.2 W 7 11 4 6 1022.7 1022.7 0.0
28/07:30am 1.7 -1.3 1.0 95 0.3 W 6 13 3 7 1022.3 1022.3 0.0
28/07:21am 1.4 -1.6 0.7 95 0.3 WNW 6 9 3 5 1022.2 1022.2 0.0
28/07:04am 2.1 0.0 1.4 95 0.3 SW 2 7 1 4 1021.9 1021.9 0.0
28/07:00am 2.0 -0.5 1.3 95 0.3 SW 4 7 2 4 1021.9 1021.9 0.0
28/06:30am 1.9 -1.6 1.2 95 0.3 W 9 11 5 6 1021.4 1021.4 0.0
28/06:00am 2.3 -0.8 1.6 95 0.3 WSW 7 9 4 5 1020.7 1020.7 0.0
28/05:30am 2.8 -0.2 2.1 95 0.3 WSW 7 7 4 4 1020.5 1020.5 0.0
28/05:00am 2.5 -0.5 1.8 95 0.3 WSW 7 11 4 6 1020.1 1020.1 0.0
28/04:57am 2.7 -0.7 2.0 95 0.3 WSW 9 11 5 6 1020.0 1020.0 0.0
28/04:38am 2.5 -0.3 1.8 95 0.3 WSW 6 9 3 5 1019.8 1019.8 0.0
28/04:30am 2.5 -0.3 1.8 95 0.3 WSW 6 9 3 5 1019.8 1019.8 0.0
28/04:00am 2.6 -0.4 1.7 94 0.3 WSW 7 9 4 5 1019.6 1019.6 0.0
28/03:54am 2.7 -0.3 2.0 95 0.3 WSW 7 9 4 5 1019.5 1019.5 0.0
28/03:35am 2.7 -0.1 1.8 94 0.3 W 6 7 3 4 1019.4 1019.4 0.0
28/03:30am 3.5 0.8 2.8 95 0.3 W 6 9 3 5 1019.3 1019.3 0.0
28/03:00am 3.5 0.6 2.6 94 0.4 WSW 7 11 4 6 1019.2 1019.2 0.0
28/02:30am 3.9 1.1 3.0 94 0.4 WSW 7 9 4 5 1019.3 1019.3 0.0
28/02:00am 4.1 1.3 3.2 94 0.4 WSW 7 9 4 5 1019.1 1019.1 0.0
28/01:30am 4.3 1.2 3.4 94 0.4 W 9 11 5 6 1018.8 1018.8 0.0
28/01:00am 4.2 1.0 3.3 94 0.4 WSW 9 11 5 6 1018.7 1018.7 0.0
28/12:30am 4.6 1.9 3.7 94 0.4 W 7 9 4 5 1018.5 1018.5 0.0
28/12:00am 4.8 2.3 3.8 93 0.4 W 6 7 3 4 1018.6 1018.6 0.0
 
Date/Time
EST
Temp
°C
App
Temp
°C
Dew
Point
°C
Rel
Hum
%
Delta-T
°C
Wind Press
QNH
hPa
Press
MSL
hPa
Rain since
9am
mm
Dir  Spd
km/h
Gust
km/h
Spd
kts
Gust
kts
27/11:30pm 5.0 2.5 3.8 92 0.5 W 6 7 3 4 1018.5 1018.5 0.0
27/11:00pm 5.3 3.2 3.8 90 0.6 WSW 4 7 2 4 1018.4 1018.4 0.0
27/10:30pm 6.6 4.4 5.1 90 0.7 W 6 7 3 4 1018.5 1018.5 0.0
27/10:00pm 7.0 4.5 5.0 87 0.9 WSW 7 9 4 5 1018.4 1018.4 0.0
27/09:30pm 7.8 5.1 5.4 85 1.1 WSW 9 13 5 7 1018.0 1018.0 0.0
27/09:00pm 7.9 5.5 5.4 84 1.1 WSW 7 11 4 6 1017.7 1017.7 0.0
27/08:30pm 8.7 6.0 5.4 80 1.5 W 9 11 5 6 1017.6 1017.6 0.0
27/08:00pm 7.5 5.1 5.1 85 1.1 WNW 7 9 4 5 1017.6 1017.6 0.0
27/07:30pm 9.0 6.5 4.6 74 1.9 WSW 7 11 4 6 1017.4 1017.4 0.0
27/07:00pm 8.8 6.0 5.0 77 1.7 WSW 9 13 5 7 1017.0 1017.0 0.0
27/06:30pm 8.4 5.7 5.5 82 1.3 WSW 9 11 5 6 1016.8 1016.8 0.0
27/06:00pm 9.3 7.0 5.9 79 1.6 WSW 7 11 4 6 1016.3 1016.3 0.0
27/05:30pm 9.4 6.8 5.9 79 1.6 WSW 9 11 5 6 1015.7 1015.7 0.0
27/05:00pm 10.4 8.1 5.8 73 2.1 WSW 7 11 4 6 1015.3 1015.3 0.0
27/04:30pm 12.3 9.1 5.0 61 3.4 SSW 11 15 6 8 1015.0 1015.0 0.0
27/04:00pm 13.4 10.2 5.3 58 3.8 S 11 13 6 7 1014.5 1014.5 0.0
27/03:30pm 13.0 10.7 5.7 61 3.4 WSW 7 9 4 5 1014.4 1014.4 0.0
27/03:00pm 13.0 10.9 5.9 62 3.3 W 6 11 3 6 1014.2 1014.2 0.0
27/02:30pm 12.8 10.0 5.2 60 3.5 SSW 9 13 5 7 1013.9 1013.9 0.0
27/02:00pm 12.6 9.8 5.3 61 3.4 SW 9 13 5 7 1013.8 1013.8 0.0
27/01:30pm 12.2 9.0 5.1 62 3.3 SSW 11 17 6 9 1013.9 1013.9 0.0
27/01:00pm 12.4 8.0 4.6 59 3.6 SSW 17 20 9 11 1013.9 1013.9 0.0
27/12:30pm 13.0 8.6 4.7 57 3.8 SSW 17 24 9 13 1014.0 1014.0 0.0
27/12:00pm 13.1 8.6 4.3 55 4.0 SW 17 24 9 13 1014.1 1014.1 0.0
27/11:30am 12.9 8.4 4.3 56 3.9 SW 17 22 9 12 1014.4 1014.4 0.0
27/11:00am 12.7 8.7 4.9 59 3.6 SW 15 22 8 12 1014.6 1014.6 0.0
27/10:30am 11.3 7.7 5.2 66 2.8 WSW 13 17 7 9 1014.8 1014.8 0.0
27/10:00am 10.7 7.4 4.6 66 2.7 W 11 15 6 8 1014.7 1014.7 0.0
27/09:30am 9.8 6.8 4.2 68 2.5 W 9 13 5 7 1014.9 1014.9 0.0
27/09:00am 8.6 5.7 4.4 75 1.8 WSW 9 11 5 6 1014.8 1014.8 0.0
27/08:30am 7.4 4.4 4.2 80 1.4 WSW 9 13 5 7 1014.7 1014.7 0.0
27/08:00am 6.7 3.2 3.7 81 1.3 WSW 11 15 6 8 1014.5 1014.5 0.0
27/07:30am 6.8 3.7 3.8 81 1.3 W 9 15 5 8 1014.4 1014.4 0.0
27/07:00am 6.7 3.7 3.9 82 1.2 WSW 9 13 5 7 1014.2 1014.2 0.0
27/06:30am 6.3 3.3 4.1 86 0.9 WSW 9 15 5 8 1014.1 1014.1 0.0
27/06:00am 5.7 4.4 3.9 88 0.8 CALM 0 0 0 0 1013.9 1013.9 0.0
27/05:30am 6.3 3.8 3.8 84 1.1 WSW 6 9 3 5 1013.7 1013.7 0.0
27/05:00am 6.4 3.9 3.7 83 1.1 W 6 7 3 4 1013.5 1013.5 0.0
27/04:30am 6.3 3.0 4.3 87 0.9 WSW 11 15 6 8 1013.3 1013.3 0.0
27/04:00am 5.5 2.9 4.3 92 0.5 WSW 7 13 4 7 1013.5 1013.5 0.0
27/03:30am 5.6 3.2 4.4 92 0.5 W 6 6 3 3 1013.6 1013.6 0.0
27/03:00am 5.7 4.4 4.3 91 0.6 CALM 0 0 0 0 1013.8 1013.8 0.0
27/02:30am 5.9 3.5 4.4 90 0.6 SW 6 7 3 4 1014.4 1014.4 0.0
27/02:00am 5.8 4.6 4.4 91 0.6 CALM 0 0 0 0 1014.7 1014.7 0.0
27/01:30am 6.0 4.8 4.6 91 0.6 CALM 0 0 0 0 1014.4 1014.4 0.0
27/01:00am 5.8 3.8 4.6 92 0.5 WNW 4 9 2 5 1014.5 1014.5 0.0
27/12:30am 5.9 3.4 4.9 93 0.4 WSW 7 9 4 5 1014.7 1014.7 0.0
27/12:00am 5.9 4.7 4.7 92 0.5 CALM 0 0 0 0 1014.7 1014.7 0.0
 
Date/Time
EST
Temp
°C
App
Temp
°C
Dew
Point
°C
Rel
Hum
%
Delta-T
°C
Wind Press
QNH
hPa
Press
MSL
hPa
Rain since
9am
mm
Dir  Spd
km/h
Gust
km/h
Spd
kts
Gust
kts
26/11:30pm 6.4 5.0 5.4 93 0.4 W 2 6 1 3 1015.0 1015.0 0.0
26/11:00pm 6.2 5.1 5.2 93 0.4 CALM 0 7 0 4 1015.2 1015.2 0.0
26/10:30pm 6.3 5.2 5.3 93 0.4 CALM 0 0 0 0 1015.5 1015.5 0.0
26/10:00pm 6.6 4.4 5.4 92 0.5 W 6 6 3 3 1015.7 1015.7 0.0
26/09:30pm 7.0 4.9 5.8 92 0.5 W 6 7 3 4 1016.0 1016.0 0.0
26/09:00pm 6.7 5.7 5.5 92 0.5 CALM 0 0 0 0 1016.1 1016.1 0.0
26/08:30pm 7.2 6.3 6.1 93 0.5 CALM 0 6 0 3 1016.6 1016.6 0.0
26/08:00pm 6.2 4.3 5.0 92 0.5 W 4 6 2 3 1016.7 1016.7 0.0
26/07:30pm 6.1 3.8 4.7 91 0.6 W 6 7 3 4 1016.8 1016.8 0.0
26/07:00pm 7.2 5.1 5.8 91 0.6 W 6 7 3 4 1016.6 1016.6 0.0
26/06:30pm 7.7 5.5 6.2 90 0.7 WNW 7 9 4 5 1016.6 1016.6 0.0
26/06:00pm 8.0 7.2 6.3 89 0.8 CALM 0 0 0 0 1016.3 1016.3 0.0
26/05:30pm 9.1 7.1 7.1 87 0.9 NW 7 9 4 5 1016.2 1016.2 0.0
26/05:00pm 10.5 8.7 7.9 84 1.3 NW 7 9 4 5 1016.2 1016.2 0.0
26/04:30pm 12.2 10.5 7.7 74 2.2 NNW 6 7 3 4 1016.1 1016.1 0.0
26/04:00pm 13.6 11.5 6.7 63 3.3 NNW 7 9 4 5 1016.2 1016.2 0.0
26/03:30pm 13.9 12.8 6.7 62 3.5 NW 2 7 1 4 1016.2 1016.2 0.0
26/03:00pm 14.0 13.1 5.9 58 3.8 CALM 0 0 0 0 1016.7 1016.7 0.0
26/02:30pm 14.2 13.0 4.8 53 4.4 CALM 0 0 0 0 1016.8 1016.8 0.0
26/02:00pm 14.4 13.2 4.7 52 4.5 CALM 0 0 0 0 1016.9 1016.9 0.0
26/01:30pm 14.2 11.9 4.8 53 4.4 W 6 7 3 4 1017.2 1017.2 0.0
26/01:00pm 14.4 12.0 4.4 51 4.6 WNW 6 9 3 5 1017.2 1017.2 0.0
26/12:30pm 15.1 12.8 5.0 51 4.7 W 6 9 3 5 1017.5 1017.5 0.0
26/12:00pm 14.0 11.0 4.3 52 4.4 SW 9 11 5 6 1018.4 1018.4 0.0
26/11:30am 14.1 11.2 4.4 52 4.5 SW 9 13 5 7 1019.1 1019.1 0.0
26/11:00am 13.9 11.0 4.5 53 4.3 WSW 9 15 5 8 1019.6 1019.6 0.0
26/10:30am 12.6 9.6 4.3 57 3.8 WSW 9 15 5 8 1020.1 1020.1 0.0
26/10:00am 12.1 8.9 3.3 55 3.9 WSW 9 13 5 7 1020.4 1020.4 0.0
26/09:30am 11.7 8.6 3.7 58 3.6 WSW 9 13 5 7 1020.2 1020.2 0.0
26/09:00am 9.7 6.4 2.6 61 3.0 WSW 9 15 5 8 1020.1 1020.1 0.0
26/08:30am 8.4 5.0 2.0 64 2.7 WSW 9 13 5 7 1019.9 1019.9 0.0
26/08:00am 6.6 3.6 1.7 71 2.0 W 7 9 4 5 1020.0 1020.0 0.0
26/07:30am 4.7 1.2 1.0 77 1.4 WSW 9 11 5 6 1019.9 1019.9 0.0
26/07:00am 5.4 1.8 0.8 72 1.8 W 9 11 5 6 1019.8 1019.8 0.0
26/06:30am 6.1 2.2 0.9 69 2.0 WSW 11 17 6 9 1019.5 1019.5 0.0
26/06:00am 6.1 2.2 0.9 69 2.0 W 11 15 6 8 1019.4 1019.4 0.0
26/05:30am 6.2 2.3 0.9 69 2.1 W 11 19 6 10 1019.2 1019.2 0.0
26/05:00am 6.3 1.9 0.6 67 2.2 W 13 17 7 9 1019.1 1019.1 0.0
26/04:30am 5.7 1.7 0.7 70 1.9 WSW 11 15 6 8 1019.0 1019.0 0.0
26/04:00am 6.0 2.0 0.8 69 2.0 W 11 17 6 9 1019.1 1019.1 0.0
26/03:30am 5.4 1.4 0.8 72 1.8 W 11 15 6 8 1019.3 1019.3 0.0
26/03:00am 5.1 1.6 1.0 75 1.6 W 9 13 5 7 1019.4 1019.4 0.0
26/02:30am 5.5 1.9 0.9 72 1.8 W 9 13 5 7 1019.7 1019.7 0.0
26/02:00am 5.6 2.0 0.8 71 1.9 W 9 15 5 8 1019.7 1019.7 0.0
26/01:30am 4.9 1.3 0.9 75 1.6 W 9 13 5 7 1019.8 1019.8 0.0
26/01:00am 4.4 1.4 0.6 76 1.5 WNW 6 7 3 4 1019.5 1019.5 0.0
26/12:30am 5.9 2.3 0.3 67 2.2 W 9 13 5 7 1019.5 1019.5 0.0
26/12:00am 5.7 2.1 0.3 68 2.1 W 9 13 5 7 1019.5 1019.5 0.0
 
Date/Time
EST
Temp
°C
App
Temp
°C
Dew
Point
°C
Rel
Hum
%
Delta-T
°C
Wind Press
QNH
hPa
Press
MSL
hPa
Rain since
9am
mm
Dir  Spd
km/h
Gust
km/h
Spd
kts
Gust
kts
25/11:30pm 5.3 1.3 0.5 71 1.9 W 11 15 6 8 1019.9 1019.9 0.0
25/11:00pm 4.8 1.2 0.4 73 1.7 W 9 13 5 7 1020.3 1020.3 0.0
25/10:30pm 5.0 1.3 0.2 71 1.8 W 9 13 5 7 1020.2 1020.2 0.0
25/10:00pm 4.6 1.0 0.7 76 1.5 W 9 11 5 6 1020.2 1020.2 0.0
25/09:30pm 4.4 0.8 0.9 78 1.4 NW 9 11 5 6 1020.3 1020.3 0.0
25/09:00pm 4.1 1.1 0.8 79 1.3 W 6 7 3 4 1020.4 1020.4 0.0
25/08:30pm 4.7 1.6 1.4 79 1.3 W 7 13 4 7 1020.3 1020.3 0.0
25/08:00pm 4.2 0.6 0.7 78 1.3 WSW 9 11 5 6 1020.3 1020.3 0.0
25/07:30pm 4.1 0.4 -0.3 73 1.6 W 9 11 5 6 1020.4 1020.4 0.0
25/07:00pm 5.8 2.6 0.8 70 1.9 WSW 7 9 4 5 1020.4 1020.4 0.0
25/06:30pm 6.4 3.3 1.1 69 2.1 WSW 7 11 4 6 1020.0 1020.0 0.0
25/06:00pm 6.8 3.6 0.9 66 2.3 SW 7 7 4 4 1019.8 1019.8 0.0
25/05:30pm 8.4 5.4 0.6 58 3.1 WSW 6 7 3 4 1019.4 1019.4 0.0
25/05:00pm 9.4 5.7 -0.2 51 3.8 WSW 9 13 5 7 1019.0 1019.0 0.0
25/04:30pm 11.3 7.5 -0.5 44 4.7 WSW 9 15 5 8 1018.7 1018.7 0.0
25/04:00pm 13.0 8.5 -0.6 39 5.5 SW 13 20 7 11 1018.4 1018.4 0.0
25/03:30pm 13.7 8.1 -0.3 38 5.8 SW 19 30 10 16 1018.1 1018.1 0.0
25/03:00pm 14.2 8.8 -1.0 35 6.2 SW 17 24 9 13 1018.1 1018.1 0.0
25/02:30pm 14.2 7.5 -1.4 34 6.3 SW 24 35 13 19 1017.7 1017.7 0.0
25/02:00pm 14.1 7.7 -1.9 33 6.4 SW 22 32 12 17 1017.4 1017.4 0.0
25/01:30pm 14.4 8.5 -0.5 36 6.2 WSW 20 30 11 16 1017.4 1017.4 0.0
25/01:00pm 14.0 8.2 -1.6 34 6.3 SW 19 28 10 15 1017.7 1017.7 0.0
25/12:30pm 13.7 7.8 -1.9 34 6.2 WSW 19 33 10 18 1017.9 1017.9 0.0

Latest Capital City Observations: Canberra | Sydney | Melbourne | Brisbane | Adelaide | Perth | Hobart | Darwin

Other Formats:

Comma delimited format used in spreadsheet applications
http://www.bom.gov.au/fwo/IDN60903/IDN60903.95937.axf

JavaScript Object Notation format (JSON) in row-major order
http://www.bom.gov.au/fwo/IDN60903/IDN60903.95937.json